Time;durP1;ratioP1;P1;durP2;ratioP2;P2;SDS_P1;SDS_P2;PMS_P1;PMS_P2;Temp;Humidity;BMP_temperature;BMP_pressure;BME280_temperature;BME280_humidity;BME280_pressure;Samples;Min_cycle;Max_cycle;Signal;HPM_P1;HPM_P2
2023/05/11 00:01:52;;;;;;;10.90;4.57;;;21.80;59.50;;;;;;4972852;28;20089;-73
2023/05/11 00:04:18;;;;;;;10.75;4.63;;;21.80;59.70;;;;;;4955852;28;20030;-73
2023/05/11 00:06:44;;;;;;;9.88;4.50;;;21.80;59.80;;;;;;4971877;28;20031;-73
2023/05/11 00:09:10;;;;;;;11.52;4.50;;;21.80;59.80;;;;;;4972588;28;20027;-74
2023/05/11 00:11:36;;;;;;;10.82;4.63;;;21.80;59.30;;;;;;4987928;28;20058;-74
2023/05/11 00:14:02;;;;;;;13.02;4.60;;;21.80;59.70;;;;;;4972873;28;20400;-74
2023/05/11 00:16:28;;;;;;;13.10;4.85;;;21.80;59.90;;;;;;4987459;28;20110;-74
2023/05/11 00:18:54;;;;;;;7.97;4.05;;;21.80;60.10;;;;;;4987521;28;20101;-75
2023/05/11 00:21:21;;;;;;;10.02;4.20;;;21.80;60.10;;;;;;4987664;28;20039;-74
2023/05/11 00:23:48;;;;;;;10.57;5.10;;;21.80;60.30;;;;;;4971456;28;20054;-74
2023/05/11 00:26:14;;;;;;;13.07;4.38;;;21.80;60.20;;;;;;4987451;28;20022;-74
2023/05/11 00:28:42;;;;;;;8.75;4.30;;;21.80;60.10;;;;;;4971236;28;20393;-74
2023/05/11 00:31:08;;;;;;;8.50;3.97;;;21.80;60.20;;;;;;4987518;28;20023;-74
2023/05/11 00:33:33;;;;;;;10.85;4.30;;;21.80;60.20;;;;;;4972533;28;20031;-73
2023/05/11 00:35:59;;;;;;;6.10;3.78;;;21.80;60.10;;;;;;4971659;28;20034;-73
2023/05/11 00:38:25;;;;;;;8.65;3.97;;;21.80;60.10;;;;;;4986920;28;20057;-73
2023/05/11 00:40:51;;;;;;;9.85;4.60;;;21.80;60.00;;;;;;4971835;28;20217;-73
2023/05/11 00:43:17;;;;;;;11.25;4.70;;;21.80;60.10;;;;;;4987315;28;20507;-73
2023/05/11 00:45:46;;;;;;;9.30;4.18;;;21.80;59.80;;;;;;4977985;28;20030;-73
2023/05/11 00:48:14;;;;;;;7.70;4.20;;;21.80;59.60;;;;;;4972232;28;20027;-73
2023/05/11 00:50:40;;;;;;;16.27;4.22;;;21.80;59.80;;;;;;4987373;28;20027;-73
2023/05/11 00:53:06;;;;;;;7.93;3.75;;;21.80;60.20;;;;;;4971197;28;20035;-73
2023/05/11 00:55:31;;;;;;;15.55;4.35;;;21.80;60.00;;;;;;4971132;28;20039;-74
2023/05/11 00:57:57;;;;;;;10.85;4.28;;;21.80;60.10;;;;;;4986722;28;20038;-74
2023/05/11 01:00:23;;;;;;;11.73;3.95;;;21.80;60.00;;;;;;4972388;28;20082;-73
2023/05/11 01:02:50;;;;;;;13.48;4.10;;;21.80;60.00;;;;;;4972519;28;20053;-73
2023/05/11 01:05:16;;;;;;;9.60;3.90;;;21.80;60.00;;;;;;4954961;28;20027;-74
2023/05/11 01:08:00;;;;;;;10.77;4.63;;;21.80;59.90;;;;;;4978772;28;20027;-73
2023/05/11 01:10:40;;;;;;;10.40;4.05;;;21.80;59.70;;;;;;4990902;28;20037;-74
2023/05/11 01:13:26;;;;;;;10.17;3.70;;;21.80;60.50;;;;;;4969096;28;20035;-74
2023/05/11 01:15:55;;;;;;;10.80;4.03;;;21.70;60.00;;;;;;4975992;28;20034;-73
2023/05/11 01:18:50;;;;;;;8.63;4.10;;;21.80;60.10;;;;;;4974421;28;20038;-74
2023/05/11 01:21:17;;;;;;;10.00;4.30;;;21.80;60.00;;;;;;4974714;28;20026;-73
2023/05/11 01:24:05;;;;;;;9.23;4.00;;;21.80;60.30;;;;;;4974516;28;20038;-74
2023/05/11 01:26:49;;;;;;;8.75;3.97;;;21.80;60.10;;;;;;4974603;28;20378;-74
2023/05/11 01:30:06;;;;;;;9.85;3.97;;;21.80;60.30;;;;;;4957510;28;20027;-73
2023/05/11 01:32:35;;;;;;;8.02;4.07;;;21.80;60.20;;;;;;4982076;28;20118;-74
2023/05/11 01:35:14;;;;;;;10.87;4.70;;;21.80;60.30;;;;;;4967696;28;20033;-74
2023/05/11 01:37:45;;;;;;;8.85;3.90;;;21.80;60.50;;;;;;4988906;28;20038;-73
2023/05/11 01:40:14;;;;;;;7.82;4.05;;;21.80;60.60;;;;;;4974459;28;20038;-73
2023/05/11 01:43:02;;;;;;;9.13;4.10;;;21.80;60.60;;;;;;4990406;28;20396;-73
2023/05/11 01:45:32;;;;;;;6.07;3.70;;;21.80;60.50;;;;;;4990235;28;20031;-73
2023/05/11 01:48:03;;;;;;;7.72;4.03;;;21.80;60.20;;;;;;4973911;28;20027;-73
2023/05/11 01:50:31;;;;;;;7.28;3.95;;;21.80;59.90;;;;;;4975425;28;20366;-73
2023/05/11 01:52:58;;;;;;;7.40;4.13;;;21.80;60.90;;;;;;4990323;28;20030;-73
2023/05/11 01:55:25;;;;;;;8.25;3.92;;;21.70;59.80;;;;;;4974954;28;20030;-73
2023/05/11 01:57:53;;;;;;;10.80;3.70;;;21.80;60.10;;;;;;4989975;28;20031;-73
2023/05/11 02:00:20;;;;;;;8.88;3.42;;;21.80;60.00;;;;;;4990170;28;20058;-73
2023/05/11 02:02:48;;;;;;;7.65;3.63;;;21.80;59.90;;;;;;4984746;28;20045;-74
2023/05/11 02:05:21;;;;;;;6.25;3.60;;;21.80;60.10;;;;;;4984904;28;20050;-74
2023/05/11 02:07:49;;;;;;;8.02;3.97;;;21.80;59.40;;;;;;4957482;28;20045;-74
2023/05/11 02:10:17;;;;;;;9.93;4.20;;;21.80;59.90;;;;;;4974110;28;20031;-73
2023/05/11 02:12:45;;;;;;;7.57;3.75;;;21.70;59.70;;;;;;4975002;28;20200;-74
2023/05/11 02:15:12;;;;;;;6.03;3.67;;;21.70;59.60;;;;;;4986596;28;20520;-73
2023/05/11 02:17:40;;;;;;;11.38;4.05;;;21.80;59.20;;;;;;4973127;28;20528;-73
2023/05/11 02:20:08;;;;;;;7.22;3.85;;;21.80;60.00;;;;;;4973041;28;20031;-74
2023/05/11 02:22:35;;;;;;;7.07;4.00;;;21.70;59.40;;;;;;4989439;28;20038;-74
2023/05/11 02:25:03;;;;;;;5.32;3.28;;;21.80;60.00;;;;;;4973948;28;20035;-74
2023/05/11 02:27:29;;;;;;;8.48;4.65;;;21.80;59.80;;;;;;4989202;28;20428;-74
2023/05/11 02:29:57;;;;;;;6.10;3.90;;;21.80;59.50;;;;;;4984930;28;20118;-73
2023/05/11 02:32:27;;;;;;;6.68;3.88;;;21.80;60.10;;;;;;4989404;28;20035;-73
2023/05/11 02:35:27;;;;;;;14.48;3.92;;;21.80;60.10;;;;;;4989493;28;20496;-75
2023/05/11 02:37:57;;;;;;;6.00;3.78;;;21.80;59.90;;;;;;4942289;28;20059;-73
2023/05/11 02:40:32;;;;;;;7.55;4.05;;;21.80;59.90;;;;;;4989470;28;20054;-73
2023/05/11 02:43:10;;;;;;;7.50;3.95;;;21.80;59.70;;;;;;4973097;28;20034;-73
2023/05/11 02:45:42;;;;;;;6.07;3.53;;;21.80;59.70;;;;;;4973419;28;20102;-73
2023/05/11 02:48:13;;;;;;;8.73;4.25;;;21.80;59.30;;;;;;4988916;28;20436;-74
2023/05/11 02:50:42;;;;;;;7.38;3.88;;;21.80;59.00;;;;;;4988936;28;20031;-74
2023/05/11 02:53:16;;;;;;;6.55;4.10;;;21.80;59.60;;;;;;4972847;28;20512;-73
2023/05/11 02:55:43;;;;;;;11.82;4.00;;;21.70;59.10;;;;;;4973018;28;20122;-73
2023/05/11 02:58:10;;;;;;;7.53;4.20;;;21.80;59.60;;;;;;4972427;28;20037;-74
2023/05/11 03:00:38;;;;;;;5.18;3.38;;;21.70;59.20;;;;;;4978518;28;20111;-73
2023/05/11 03:03:04;;;;;;;6.88;3.63;;;21.70;59.30;;;;;;4973874;28;20039;-74
2023/05/11 03:05:30;;;;;;;5.47;3.50;;;21.70;58.80;;;;;;4962242;28;20027;-74
2023/05/11 03:07:57;;;;;;;6.00;3.95;;;21.70;59.40;;;;;;4988582;28;20049;-74
2023/05/11 03:10:25;;;;;;;7.28;3.85;;;21.70;59.10;;;;;;4985147;28;20501;-73
2023/05/11 03:12:51;;;;;;;5.68;3.63;;;21.70;59.20;;;;;;4964501;28;20031;-73
2023/05/11 03:15:17;;;;;;;6.15;3.83;;;21.70;59.40;;;;;;4988649;28;20500;-74
2023/05/11 03:17:46;;;;;;;6.95;3.67;;;21.70;59.70;;;;;;4956739;28;20142;-73
2023/05/11 03:20:15;;;;;;;6.13;3.60;;;21.70;59.40;;;;;;4972493;28;20120;-73
2023/05/11 03:22:42;;;;;;;7.55;4.10;;;21.80;59.90;;;;;;4972624;28;20035;-73
2023/05/11 03:25:10;;;;;;;8.10;3.70;;;21.70;59.90;;;;;;4974180;28;20058;-73
2023/05/11 03:27:37;;;;;;;7.95;3.95;;;21.80;60.10;;;;;;4988190;28;20034;-74
2023/05/11 03:30:08;;;;;;;6.90;3.40;;;21.80;60.00;;;;;;4988016;28;20037;-73
2023/05/11 03:32:38;;;;;;;6.35;4.03;;;21.80;59.60;;;;;;4973494;28;20057;-73
2023/05/11 03:35:08;;;;;;;6.20;3.92;;;21.80;59.60;;;;;;4973385;28;20041;-74
2023/05/11 03:37:37;;;;;;;5.70;3.60;;;21.80;59.30;;;;;;4972050;28;20046;-74
2023/05/11 03:40:11;;;;;;;8.07;3.67;;;21.80;59.80;;;;;;4966217;28;20117;-74
2023/05/11 03:42:46;;;;;;;5.78;3.63;;;21.70;59.50;;;;;;4972397;28;20038;-74
2023/05/11 03:45:16;;;;;;;5.72;3.97;;;21.70;59.40;;;;;;4988193;28;21419;-74
2023/05/11 03:47:43;;;;;;;7.53;4.30;;;21.70;58.90;;;;;;4987862;28;20026;-74
2023/05/11 03:50:10;;;;;;;8.23;3.72;;;21.80;58.60;;;;;;4972501;28;20110;-73
2023/05/11 03:52:37;;;;;;;12.55;4.15;;;21.70;58.90;;;;;;4987960;28;20027;-74
2023/05/11 03:55:04;;;;;;;5.35;3.65;;;21.70;58.90;;;;;;4976255;28;20054;-74
2023/05/11 03:57:29;;;;;;;8.45;3.90;;;21.70;58.20;;;;;;4955302;28;20066;-73
2023/05/11 03:59:55;;;;;;;8.18;4.20;;;21.70;59.30;;;;;;4971807;28;20072;-73
2023/05/11 04:02:23;;;;;;;8.45;3.78;;;21.70;59.60;;;;;;4972847;28;20031;-74
2023/05/11 04:04:51;;;;;;;6.05;4.10;;;21.70;58.50;;;;;;4973038;28;20054;-74
2023/05/11 04:07:17;;;;;;;6.65;3.95;;;21.70;58.30;;;;;;4972582;28;20030;-74
2023/05/11 04:09:43;;;;;;;6.15;3.90;;;21.70;58.30;;;;;;4971978;28;20119;-74
2023/05/11 04:12:09;;;;;;;6.88;3.85;;;21.70;58.20;;;;;;4987692;28;20113;-74
2023/05/11 04:14:34;;;;;;;5.03;3.50;;;21.70;58.20;;;;;;4972911;28;20034;-73
2023/05/11 04:17:00;;;;;;;8.32;4.18;;;21.70;58.10;;;;;;4979177;28;20034;-74
2023/05/11 04:19:26;;;;;;;6.55;4.05;;;21.70;57.40;;;;;;4987725;28;20097;-73
2023/05/11 04:21:53;;;;;;;5.32;3.75;;;21.70;57.70;;;;;;4971640;28;20416;-73
2023/05/11 04:24:19;;;;;;;10.13;4.25;;;21.70;58.70;;;;;;4958466;28;20031;-73
2023/05/11 04:26:45;;;;;;;7.40;3.70;;;21.80;58.20;;;;;;4971490;28;20031;-73
2023/05/11 04:29:11;;;;;;;6.60;4.00;;;21.70;58.30;;;;;;4987345;28;20388;-73
2023/05/11 04:31:37;;;;;;;7.57;3.70;;;21.80;59.30;;;;;;4987375;28;20037;-74
2023/05/11 04:34:07;;;;;;;6.47;3.75;;;21.80;58.90;;;;;;4987472;28;20066;-73
2023/05/11 04:36:33;;;;;;;7.07;4.07;;;21.70;57.50;;;;;;4986840;28;20038;-73
2023/05/11 04:39:00;;;;;;;7.97;4.50;;;21.70;57.80;;;;;;4970852;28;20034;-74
2023/05/11 04:41:26;;;;;;;5.70;3.78;;;21.70;58.20;;;;;;4987453;28;20481;-73
2023/05/11 04:43:56;;;;;;;7.35;3.70;;;21.70;59.00;;;;;;4991348;28;20035;-73
2023/05/11 04:46:22;;;;;;;6.13;3.53;;;21.70;58.10;;;;;;4991529;28;20097;-74
2023/05/11 04:48:48;;;;;;;7.15;3.70;;;21.70;58.20;;;;;;4991166;28;20027;-74
2023/05/11 04:51:14;;;;;;;6.07;3.60;;;21.70;58.00;;;;;;4991466;28;20033;-74
2023/05/11 04:53:43;;;;;;;4.97;3.63;;;21.70;58.80;;;;;;4950053;28;20505;-73
2023/05/11 04:56:09;;;;;;;6.38;3.72;;;21.70;57.90;;;;;;4991077;28;20034;-73
2023/05/11 04:58:35;;;;;;;6.68;4.05;;;21.70;58.20;;;;;;4974709;28;20445;-74
2023/05/11 05:01:01;;;;;;;5.35;3.63;;;21.70;57.70;;;;;;4991153;28;20103;-73
2023/05/11 05:03:27;;;;;;;7.25;4.10;;;21.70;58.60;;;;;;4990859;28;20035;-73
2023/05/11 05:05:54;;;;;;;6.25;3.78;;;21.70;58.60;;;;;;4958397;28;20034;-73
2023/05/11 05:08:20;;;;;;;7.90;3.47;;;21.70;60.10;;;;;;4989799;28;20385;-73
2023/05/11 05:10:47;;;;;;;11.43;4.15;;;21.80;60.60;;;;;;4989469;28;20026;-73
2023/05/11 05:13:15;;;;;;;10.07;4.38;;;21.80;60.30;;;;;;4990772;28;20030;-73
2023/05/11 05:15:41;;;;;;;7.85;4.10;;;21.80;60.70;;;;;;4991001;22;20812;-73
2023/05/11 05:18:08;;;;;;;8.32;4.18;;;21.80;58.70;;;;;;4963091;28;20035;-72
2023/05/11 05:20:35;;;;;;;10.60;4.18;;;21.70;58.80;;;;;;4972183;28;20054;-72
2023/05/11 05:23:01;;;;;;;7.38;3.88;;;21.80;59.90;;;;;;4974696;28;20038;-72
2023/05/11 05:25:27;;;;;;;8.20;4.05;;;21.80;60.10;;;;;;4966269;28;20031;-72
2023/05/11 05:27:54;;;;;;;10.93;4.68;;;21.80;58.40;;;;;;4951028;28;20034;-73
2023/05/11 05:30:19;;;;;;;9.68;4.40;;;21.80;59.80;;;;;;4963303;28;20019;-72
2023/05/11 05:32:47;;;;;;;10.50;4.30;;;21.80;60.10;;;;;;4974480;28;20118;-72
2023/05/11 05:35:12;;;;;;;7.72;3.88;;;21.80;60.30;;;;;;4990474;28;20147;-72
2023/05/11 05:37:39;;;;;;;9.60;4.15;;;21.80;60.30;;;;;;4940613;28;20042;-72
2023/05/11 05:40:06;;;;;;;8.00;4.32;;;21.70;59.90;;;;;;4974254;28;20031;-72
2023/05/11 05:42:35;;;;;;;7.63;3.88;;;21.80;59.90;;;;;;4967470;28;20069;-72
2023/05/11 05:45:01;;;;;;;8.73;4.82;;;21.80;59.00;;;;;;4974046;28;20102;-72
2023/05/11 05:47:28;;;;;;;12.13;4.40;;;21.70;60.30;;;;;;4941618;28;20034;-72
2023/05/11 05:49:53;;;;;;;16.13;4.60;;;21.80;61.40;;;;;;4958200;28;20477;-73
2023/05/11 05:52:19;;;;;;;8.30;4.07;;;21.80;60.60;;;;;;4958076;28;20065;-73
2023/05/11 05:54:49;;;;;;;13.27;4.60;;;21.80;61.30;;;;;;4957968;28;20019;-73
2023/05/11 05:57:14;;;;;;;10.90;4.85;;;21.80;62.60;;;;;;4956637;28;20193;-73
2023/05/11 05:59:40;;;;;;;12.48;4.35;;;21.80;60.20;;;;;;4952569;28;20034;-73
2023/05/11 06:02:08;;;;;;;16.60;5.55;;;21.80;62.30;;;;;;4973825;28;20038;-73
2023/05/11 06:04:33;;;;;;;14.65;5.00;;;21.80;62.30;;;;;;4975198;28;20023;-75
2023/05/11 06:06:59;;;;;;;16.85;5.07;;;21.90;62.60;;;;;;4974062;28;20457;-75
2023/05/11 06:09:25;;;;;;;15.38;5.50;;;21.90;62.70;;;;;;4974863;28;20031;-75
2023/05/11 06:11:52;;;;;;;21.85;5.88;;;21.90;62.70;;;;;;4974273;28;20031;-75
2023/05/11 06:14:23;;;;;;;16.02;5.57;;;22.00;61.70;;;;;;4966425;28;20121;-74
2023/05/11 06:16:49;;;;;;;15.35;5.35;;;22.00;61.50;;;;;;4957938;28;20035;-74
2023/05/11 06:19:16;;;;;;;11.50;5.57;;;22.00;61.70;;;;;;4956568;28;20031;-73
2023/05/11 06:21:45;;;;;;;14.13;5.47;;;22.00;61.90;;;;;;4958348;28;20041;-73
2023/05/11 06:24:12;;;;;;;18.67;5.38;;;22.00;62.20;;;;;;4956106;28;20031;-74
2023/05/11 06:26:40;;;;;;;18.08;5.93;;;22.00;62.20;;;;;;4957565;28;20054;-74
2023/05/11 06:29:06;;;;;;;14.60;6.00;;;22.00;62.30;;;;;;4973225;28;20027;-74
2023/05/11 06:31:33;;;;;;;10.70;5.13;;;22.00;62.00;;;;;;4970228;28;20034;-74
2023/05/11 06:33:59;;;;;;;12.45;6.03;;;22.00;62.00;;;;;;4956718;28;20051;-74
2023/05/11 06:36:27;;;;;;;14.13;5.00;;;22.00;61.80;;;;;;4970134;28;20082;-73
2023/05/11 06:38:53;;;;;;;16.17;5.57;;;21.90;61.60;;;;;;4973081;28;20038;-73
2023/05/11 06:41:20;;;;;;;13.50;5.60;;;22.00;61.60;;;;;;4957737;28;20046;-73
2023/05/11 06:43:46;;;;;;;13.95;5.72;;;22.00;61.60;;;;;;4973418;28;20034;-73
2023/05/11 06:46:20;;;;;;;19.75;5.88;;;21.90;61.50;;;;;;4959150;28;20088;-73
2023/05/11 06:48:46;;;;;;;17.10;5.65;;;21.90;61.40;;;;;;4964326;28;20027;-73
2023/05/11 06:51:12;;;;;;;23.35;6.00;;;22.00;61.30;;;;;;4973418;28;20034;-73
2023/05/11 06:53:38;;;;;;;12.02;5.15;;;22.00;61.30;;;;;;4973294;28;20053;-73
2023/05/11 06:56:04;;;;;;;19.33;5.50;;;22.00;61.30;;;;;;4974556;28;20066;-73
2023/05/11 06:58:30;;;;;;;13.43;5.80;;;22.00;61.10;;;;;;4972880;28;20039;-73
2023/05/11 07:00:56;;;;;;;20.00;6.20;;;22.00;61.10;;;;;;4971117;28;20039;-73
2023/05/11 07:03:22;;;;;;;14.77;5.85;;;22.00;61.00;;;;;;4970398;28;20503;-73
2023/05/11 07:05:47;;;;;;;12.45;5.18;;;22.00;61.50;;;;;;4973549;28;20026;-73
2023/05/11 07:08:13;;;;;;;17.50;5.95;;;22.00;60.90;;;;;;4973995;28;20030;-73
2023/05/11 07:10:40;;;;;;;14.27;6.20;;;22.00;60.80;;;;;;4974990;28;20106;-73
2023/05/11 07:13:06;;;;;;;13.90;5.57;;;22.00;60.70;;;;;;4975175;28;20397;-74
2023/05/11 07:15:32;;;;;;;16.05;5.78;;;22.00;60.60;;;;;;4974808;28;20027;-74
2023/05/11 07:18:00;;;;;;;13.48;5.10;;;22.10;60.50;;;;;;4973307;28;20492;-73
2023/05/11 07:20:26;;;;;;;15.20;6.07;;;22.10;60.50;;;;;;4976061;28;20117;-73
2023/05/11 07:22:55;;;;;;;14.45;5.80;;;22.10;60.40;;;;;;4975697;28;20468;-74
2023/05/11 07:25:21;;;;;;;11.57;5.15;;;22.10;60.30;;;;;;4974482;28;20050;-74
2023/05/11 07:27:47;;;;;;;14.75;5.78;;;22.10;60.30;;;;;;4974884;28;20022;-73
2023/05/11 07:30:13;;;;;;;13.07;5.43;;;22.10;60.30;;;;;;4976200;28;20078;-73
2023/05/11 07:32:38;;;;;;;14.35;5.82;;;22.10;60.20;;;;;;4973562;28;20035;-73
2023/05/11 07:35:05;;;;;;;13.60;6.22;;;22.10;60.50;;;;;;4972828;28;20113;-73
2023/05/11 07:37:30;;;;;;;16.80;5.90;;;22.10;60.50;;;;;;4963181;28;20260;-73
2023/05/11 07:39:56;;;;;;;17.45;6.15;;;22.10;60.40;;;;;;4990087;28;20037;-73
2023/05/11 07:42:22;;;;;;;18.58;6.45;;;22.10;60.30;;;;;;4992942;28;20152;-73
2023/05/11 07:44:48;;;;;;;13.73;6.25;;;22.10;60.30;;;;;;4993012;28;20396;-74
2023/05/11 07:47:14;;;;;;;14.15;5.50;;;22.10;60.30;;;;;;4959030;28;20026;-73
2023/05/11 07:49:40;;;;;;;16.05;6.13;;;22.10;60.40;;;;;;4974085;28;20124;-73
2023/05/11 07:52:06;;;;;;;15.48;6.40;;;22.10;60.50;;;;;;4973545;28;20027;-72
2023/05/11 07:54:32;;;;;;;14.60;6.32;;;22.10;60.20;;;;;;4973513;28;20049;-71
2023/05/11 07:56:57;;;;;;;12.80;6.40;;;22.10;60.20;;;;;;4974234;28;20055;-73
2023/05/11 07:59:23;;;;;;;15.55;6.18;;;22.20;60.30;;;;;;4973166;28;20034;-73
2023/05/11 08:01:49;;;;;;;15.73;6.45;;;22.20;60.30;;;;;;4972907;28;20027;-72
2023/05/11 08:04:15;;;;;;;17.48;5.78;;;22.20;60.30;;;;;;4973070;28;20026;-73
2023/05/11 08:06:41;;;;;;;15.85;6.40;;;22.20;61.00;;;;;;4955266;28;20118;-73
2023/05/11 08:09:07;;;;;;;14.82;6.63;;;22.20;60.20;;;;;;4955467;28;20031;-72
2023/05/11 08:11:33;;;;;;;19.55;6.60;;;22.20;60.10;;;;;;4972819;28;20031;-72
2023/05/11 08:13:59;;;;;;;15.95;6.35;;;22.20;60.00;;;;;;4955695;28;20042;-73
2023/05/11 08:16:25;;;;;;;16.80;6.05;;;22.20;60.00;;;;;;4971811;28;20035;-73
2023/05/11 08:18:50;;;;;;;15.80;6.65;;;22.20;59.80;;;;;;4955181;28;20122;-73
2023/05/11 08:21:16;;;;;;;13.00;5.80;;;22.30;59.80;;;;;;4972663;28;20027;-73
2023/05/11 08:23:42;;;;;;;12.00;5.78;;;22.20;59.80;;;;;;4972720;28;20027;-72
2023/05/11 08:26:08;;;;;;;13.32;6.30;;;22.30;59.80;;;;;;4972497;28;20495;-74
2023/05/11 08:28:34;;;;;;;13.27;5.95;;;22.20;59.70;;;;;;4972414;28;20027;-73
2023/05/11 08:31:00;;;;;;;12.75;6.05;;;22.20;59.70;;;;;;4955555;28;20059;-72
2023/05/11 08:33:26;;;;;;;15.27;5.97;;;22.20;59.70;;;;;;4972279;28;20105;-74
2023/05/11 08:35:52;;;;;;;16.30;5.75;;;22.20;59.70;;;;;;4955782;28;20038;-74
2023/05/11 08:38:18;;;;;;;17.52;6.15;;;22.20;59.80;;;;;;4964206;28;20037;-73
2023/05/11 08:40:47;;;;;;;16.00;6.07;;;22.30;59.80;;;;;;4972417;28;20031;-74
2023/05/11 08:43:14;;;;;;;13.57;5.67;;;22.20;59.90;;;;;;4971179;28;20034;-73
2023/05/11 08:45:47;;;;;;;12.63;6.10;;;22.20;59.70;;;;;;4972271;28;20034;-74
2023/05/11 08:48:19;;;;;;;17.08;6.00;;;22.20;60.30;;;;;;4972304;28;20078;-73
2023/05/11 08:50:45;;;;;;;12.05;5.50;;;22.30;59.00;;;;;;4972525;28;20397;-73
2023/05/11 08:53:12;;;;;;;18.65;6.53;;;22.30;60.60;;;;;;4972122;28;20033;-73
2023/05/11 08:55:40;;;;;;;12.15;5.80;;;22.30;60.10;;;;;;4972274;28;20034;-74
2023/05/11 08:58:07;;;;;;;14.45;6.25;;;22.20;60.30;;;;;;4972192;28;20563;-73
2023/05/11 09:00:34;;;;;;;13.65;5.65;;;22.20;59.90;;;;;;4945943;28;20151;-75
2023/05/11 09:03:00;;;;;;;13.73;5.25;;;22.20;60.10;;;;;;4963927;28;20516;-76
2023/05/11 09:05:26;;;;;;;15.20;5.72;;;22.20;60.20;;;;;;4951243;28;20031;-74
2023/05/11 09:08:00;;;;;;;12.73;5.38;;;22.20;60.30;;;;;;4950543;28;20101;-74
2023/05/11 09:10:27;;;;;;;20.52;5.75;;;22.20;60.40;;;;;;4969208;28;20022;-74
2023/05/11 09:12:52;;;;;;;9.65;5.70;;;22.20;60.30;;;;;;4952757;29;20035;-74
2023/05/11 09:15:18;;;;;;;11.63;5.55;;;22.20;60.10;;;;;;4965380;28;20037;-74
2023/05/11 09:17:44;;;;;;;11.05;5.45;;;22.20;59.80;;;;;;4938755;28;20057;-75
2023/05/11 09:20:10;;;;;;;13.25;5.43;;;22.20;60.20;;;;;;4965952;28;20458;-75
2023/05/11 09:22:44;;;;;;;14.27;5.70;;;22.20;59.30;;;;;;4971868;28;20485;-75
2023/05/11 09:25:16;;;;;;;11.32;5.78;;;22.20;59.80;;;;;;4972043;28;20031;-75
2023/05/11 09:27:44;;;;;;;9.32;5.10;;;22.20;59.70;;;;;;4971886;28;20030;-75
2023/05/11 09:30:15;;;;;;;12.90;6.03;;;22.20;59.70;;;;;;4958443;28;20404;-75
2023/05/11 09:32:52;;;;;;;10.93;5.03;;;22.20;59.60;;;;;;4975509;28;20038;-75
2023/05/11 09:35:29;;;;;;;11.80;5.38;;;22.10;59.00;;;;;;4975747;28;20031;-75
2023/05/11 09:38:03;;;;;;;10.95;5.35;;;22.20;59.00;;;;;;4957757;28;20045;-75
2023/05/11 09:40:35;;;;;;;23.08;5.78;;;22.10;58.80;;;;;;4946367;28;20067;-72
2023/05/11 09:43:21;;;;;;;17.02;5.70;;;22.10;59.80;;;;;;4965128;28;20027;-72
2023/05/11 09:45:49;;;;;;;13.07;5.05;;;22.20;59.90;;;;;;4965406;28;20057;-72
2023/05/11 09:48:25;;;;;;;16.10;5.65;;;22.20;59.70;;;;;;4974743;28;20047;-73
2023/05/11 09:51:01;;;;;;;16.65;5.22;;;22.20;59.40;;;;;;4953626;28;20089;-72
2023/05/11 09:53:37;;;;;;;13.55;5.00;;;22.30;59.50;;;;;;4952316;28;20030;-73
2023/05/11 09:56:04;;;;;;;13.93;4.93;;;22.30;59.70;;;;;;4964830;28;20041;-72
2023/05/11 09:58:46;;;;;;;16.85;5.93;;;22.20;59.40;;;;;;4974710;28;20027;-73
2023/05/11 10:01:15;;;;;;;12.57;5.32;;;22.30;59.40;;;;;;4974676;28;20110;-72
2023/05/11 10:03:45;;;;;;;;;;;22.30;59.60;;;;;;4975513;28;20042;-72
2023/05/11 10:06:11;;;;;;;16.40;5.65;;;22.20;59.30;;;;;;4975157;28;19914;-73
2023/05/11 10:08:37;;;;;;;11.70;5.18;;;22.20;59.40;;;;;;4974905;28;20019;-73
2023/05/11 10:11:05;;;;;;;15.82;5.88;;;22.20;59.30;;;;;;4975090;28;20031;-72
2023/05/11 10:13:36;;;;;;;13.32;4.75;;;22.20;59.30;;;;;;4958663;28;20093;-72
2023/05/11 10:16:12;;;;;;;13.48;5.18;;;22.20;59.30;;;;;;4958802;28;20685;-72
2023/05/11 10:18:39;;;;;;;13.10;5.35;;;22.20;59.40;;;;;;4974596;28;20099;-73
2023/05/11 10:21:05;;;;;;;17.10;5.25;;;22.20;59.30;;;;;;4955830;28;20033;-73
2023/05/11 10:23:35;;;;;;;23.45;6.38;;;22.20;59.50;;;;;;4972130;28;20039;-73
2023/05/11 10:26:03;;;;;;;10.90;4.53;;;22.20;59.80;;;;;;4974543;28;20034;-73
2023/05/11 10:28:29;;;;;;;10.43;4.70;;;22.20;59.60;;;;;;4973583;28;20055;-72
2023/05/11 10:30:56;;;;;;;10.45;4.90;;;22.20;59.70;;;;;;4972530;28;20054;-74
2023/05/11 10:33:22;;;;;;;14.18;5.35;;;22.20;59.60;;;;;;4974398;28;20449;-73
2023/05/11 10:35:50;;;;;;;12.25;5.15;;;22.30;59.40;;;;;;4974554;28;20449;-74
2023/05/11 10:38:17;;;;;;;12.90;5.15;;;22.20;59.30;;;;;;4973148;28;20070;-73
2023/05/11 10:40:45;;;;;;;10.77;4.82;;;22.20;59.20;;;;;;4973621;28;20034;-73
2023/05/11 10:43:33;;;;;;;11.25;5.00;;;22.30;59.30;;;;;;4968770;28;20041;-73
2023/05/11 10:46:07;;;;;;;11.75;5.47;;;22.20;59.20;;;;;;4964188;28;20505;-72
2023/05/11 10:49:08;;;;;;;11.07;4.57;;;22.20;59.30;;;;;;4972908;28;20023;-73
2023/05/11 10:51:47;;;;;;;16.50;5.20;;;22.20;59.20;;;;;;4956126;28;20101;-72
2023/05/11 10:54:19;;;;;;;11.27;4.68;;;22.20;59.30;;;;;;4966512;28;20037;-72
2023/05/11 10:57:11;;;;;;;14.40;4.90;;;22.20;59.40;;;;;;4965268;28;20118;-73
2023/05/11 10:59:56;;;;;;;15.35;5.28;;;22.20;59.20;;;;;;4974095;28;20042;-73
2023/05/11 11:02:23;;;;;;;11.52;4.82;;;22.20;59.10;;;;;;4973865;28;20500;-72
2023/05/11 11:04:50;;;;;;;11.10;5.00;;;22.20;59.20;;;;;;4956690;28;20477;-72
2023/05/11 11:07:18;;;;;;;15.07;4.90;;;22.20;59.00;;;;;;4972939;28;20143;-75
2023/05/11 11:09:50;;;;;;;9.55;4.40;;;22.20;59.10;;;;;;4952240;28;20035;-77
2023/05/11 11:12:16;;;;;;;20.55;5.18;;;22.20;58.90;;;;;;4968656;28;20027;-81
2023/05/11 11:15:00;;;;;;;11.63;4.05;;;22.20;58.80;;;;;;4957198;28;20037;-80
2023/05/11 11:17:30;;;;;;;10.73;3.45;;;22.20;56.20;;;;;;4984184;23;20104;-72
2023/05/11 11:20:07;;;;;;;7.70;3.15;;;22.20;53.70;;;;;;4974325;28;20050;-72
2023/05/11 11:22:40;;;;;;;6.05;3.22;;;22.20;52.20;;;;;;4971308;28;20475;-72
2023/05/11 11:25:13;;;;;;;9.68;3.08;;;22.30;50.70;;;;;;4967783;28;20038;-72
2023/05/11 11:27:39;;;;;;;9.13;3.78;;;22.30;50.20;;;;;;4991548;28;20038;-72
2023/05/11 11:30:19;;;;;;;7.15;2.90;;;22.30;50.70;;;;;;4992909;28;20038;-71
2023/05/11 11:32:47;;;;;;;10.25;3.40;;;22.30;49.70;;;;;;4975865;28;20046;-71
2023/05/11 11:35:40;;;;;;;7.38;3.53;;;22.30;49.20;;;;;;4974351;28;20081;-72
2023/05/11 11:38:07;;;;;;;7.22;3.72;;;22.30;51.30;;;;;;4972267;28;20030;-72
2023/05/11 11:40:53;;;;;;;6.60;3.65;;;22.30;50.50;;;;;;4984238;28;20555;-72
2023/05/11 11:43:27;;;;;;;7.65;3.55;;;22.20;50.30;;;;;;4992516;28;20026;-72
2023/05/11 11:46:03;;;;;;;7.25;3.10;;;22.30;50.30;;;;;;4982117;28;20555;-72
2023/05/11 11:48:34;;;;;;;8.07;3.88;;;22.20;49.00;;;;;;4988135;28;20026;-72
2023/05/11 11:51:07;;;;;;;5.75;3.35;;;22.20;50.80;;;;;;4979996;28;20022;-72
2023/05/11 11:53:44;;;;;;;8.95;3.90;;;22.10;50.80;;;;;;4984251;28;20100;-72
2023/05/11 11:56:12;;;;;;;6.03;3.42;;;22.10;49.60;;;;;;4989417;28;20472;-71
2023/05/11 11:58:41;;;;;;;9.27;3.80;;;22.10;50.30;;;;;;4992220;28;20033;-72
2023/05/11 12:01:10;;;;;;;7.05;3.20;;;22.10;51.60;;;;;;4978054;28;20037;-72
2023/05/11 12:03:37;;;;;;;8.47;3.30;;;22.20;51.80;;;;;;4981374;28;20053;-72
2023/05/11 12:06:07;;;;;;;5.35;2.90;;;22.20;52.50;;;;;;4981586;28;20779;-72
2023/05/11 12:08:35;;;;;;;11.15;3.20;;;22.10;51.10;;;;;;4990418;28;20033;-72
2023/05/11 12:11:02;;;;;;;9.63;3.13;;;22.10;51.70;;;;;;4984777;28;20026;-72
2023/05/11 12:13:29;;;;;;;10.73;3.08;;;22.10;51.80;;;;;;4989361;28;20041;-72
2023/05/11 12:16:12;;;;;;;7.10;2.90;;;22.10;52.40;;;;;;4991443;28;20038;-72
2023/05/11 12:18:55;;;;;;;5.75;3.20;;;22.10;52.10;;;;;;4991909;28;20066;-72
2023/05/11 12:21:27;;;;;;;3.95;2.80;;;22.10;52.10;;;;;;4992025;28;20077;-72
2023/05/11 12:24:04;;;;;;;8.35;3.33;;;22.10;52.60;;;;;;4974824;28;20137;-72
2023/05/11 12:26:31;;;;;;;5.10;2.97;;;22.10;52.20;;;;;;4992013;28;20030;-72
2023/05/11 12:29:13;;;;;;;8.63;3.45;;;22.10;52.90;;;;;;4990552;28;20022;-72
2023/05/11 12:31:43;;;;;;;;;;;22.10;53.00;;;;;;4992550;28;20106;-72
2023/05/11 12:34:16;;;;;;;;;;;22.10;52.80;;;;;;4992476;28;20290;-72
2023/05/11 12:36:47;;;;;;;5.32;3.38;;;22.10;52.80;;;;;;4991900;28;20354;-72
2023/05/11 12:39:24;;;;;;;7.13;3.60;;;22.10;53.00;;;;;;4992063;28;20033;-72
2023/05/11 12:41:53;;;;;;;5.05;3.25;;;22.10;53.10;;;;;;4992021;28;20576;-72
2023/05/11 12:44:21;;;;;;;7.43;3.27;;;22.10;53.00;;;;;;4990675;28;20037;-72
2023/05/11 12:46:48;;;;;;;12.65;3.45;;;22.10;53.00;;;;;;4958602;28;20272;-72
2023/05/11 12:49:19;;;;;;;5.10;3.10;;;22.10;53.20;;;;;;4974553;28;20028;-72
2023/05/11 12:51:58;;;;;;;5.63;2.88;;;22.10;53.00;;;;;;4991896;28;20035;-72
2023/05/11 12:54:36;;;;;;;6.65;3.35;;;22.10;53.30;;;;;;4991884;28;20049;-72